CZFM/ZFM METAR and TAF weather

Enter ICAO airport designator
Station Type Date Time Source
CZFM METAR 2018/04/21 20:00 UTC NOAA

CZFM 212000Z 00000KT 2SM -SN BKN030 M17/M23 A3028 RMK NS6 SLP262


Station Type Date Time Source
CZFM Decoded METAR 2018/04/21 20:00 UTC NOAA

Fort Mcpherson Airport, Canada (CZFM) 67-24N 134-51W
Apr 21, 2018 - 04:00 PM EDT / 2018.04.21 2000 UTC
Wind: Calm:0
Visibility: 2 mile(s):0
Sky conditions: mostly cloudy
Weather: light snow
Temperature: 1 F (-17 C)
Dew Point: -9 F (-23 C)
Relative Humidity: 59%
Pressure (altimeter): 30.28 in. Hg (1025 hPa)
ob: CZFM 212000Z 00000KT 2SM -SN BKN030 M17/M23 A3028 RMK NS6 SLP262
cycle: 20

Station Type Date Time Source
CZFM TAF 2018/04/21 19:18 UTC NOAA

TAF
AMD TAF
AMD CZFM 211915Z 2119/2123 35006KT P6SM -SN FEW020 BKN040
TEMPO 2119/2122 2SM -SN BKN020
FM212200 04005KT P6SM FEW030 SCT060
RMK NXT FCST WILL BE ISSUED AT 221545Z


Example: see airport list